sensor_id;sensor_type;location;lat;lon;timestamp;P1;durP1;ratioP1;P2;durP2;ratioP2
44126;SDS011;29786;50.798;7.302;2022-11-04T00:00:22;1.2;;;1.1;;
44126;SDS011;29786;50.798;7.302;2022-11-04T00:01:22;2.9;;;1.2;;
44126;SDS011;29786;50.798;7.302;2022-11-04T00:02:22;1.2;;;1.1;;
44126;SDS011;29786;50.798;7.302;2022-11-04T00:03:22;1.2;;;1.1;;
44126;SDS011;29786;50.798;7.302;2022-11-04T00:04:23;1.8;;;1.2;;
44126;SDS011;29786;50.798;7.302;2022-11-04T00:05:22;1.4;;;1.2;;
44126;SDS011;29786;50.798;7.302;2022-11-04T00:06:22;1.3;;;1.2;;
44126;SDS011;29786;50.798;7.302;2022-11-04T00:07:22;1.9;;;1.1;;
44126;SDS011;29786;50.798;7.302;2022-11-04T00:08:22;1.6;;;1.3;;
44126;SDS011;29786;50.798;7.302;2022-11-04T00:09:23;1.7;;;1.3;;
44126;SDS011;29786;50.798;7.302;2022-11-04T00:10:22;2.7;;;1.3;;
44126;SDS011;29786;50.798;7.302;2022-11-04T00:11:22;3.5;;;1.3;;
44126;SDS011;29786;50.798;7.302;2022-11-04T00:12:22;1.8;;;1.4;;
44126;SDS011;29786;50.798;7.302;2022-11-04T00:13:22;1.4;;;1.3;;
44126;SDS011;29786;50.798;7.302;2022-11-04T00:14:22;1.8;;;1.3;;
44126;SDS011;29786;50.798;7.302;2022-11-04T00:15:22;2.1;;;1;;
44126;SDS011;29786;50.798;7.302;2022-11-04T00:16:22;2.1;;;1.2;;
44126;SDS011;29786;50.798;7.302;2022-11-04T00:17:22;1.1;;;1;;
44126;SDS011;29786;50.798;7.302;2022-11-04T00:18:22;1.1;;;0.9;;
44126;SDS011;29786;50.798;7.302;2022-11-04T00:19:22;2.8;;;1.1;;
44126;SDS011;29786;50.798;7.302;2022-11-04T00:20:22;1.3;;;1.2;;
44126;SDS011;29786;50.798;7.302;2022-11-04T00:21:22;1.8;;;1;;
44126;SDS011;29786;50.798;7.302;2022-11-04T00:22:22;1.2;;;1.1;;
44126;SDS011;29786;50.798;7.302;2022-11-04T00:23:22;1.2;;;1.1;;
44126;SDS011;29786;50.798;7.302;2022-11-04T00:24:22;1.6;;;1.4;;
44126;SDS011;29786;50.798;7.302;2022-11-04T00:25:22;1.2;;;1.1;;
44126;SDS011;29786;50.798;7.302;2022-11-04T00:26:22;1.8;;;1.3;;
44126;SDS011;29786;50.798;7.302;2022-11-04T00:27:22;1.5;;;1.2;;
44126;SDS011;29786;50.798;7.302;2022-11-04T00:28:22;2.4;;;1.3;;
44126;SDS011;29786;50.798;7.302;2022-11-04T00:29:22;1.1;;;1;;
44126;SDS011;29786;50.798;7.302;2022-11-04T00:30:22;1.9;;;1.2;;
44126;SDS011;29786;50.798;7.302;2022-11-04T00:31:22;1.7;;;1.3;;
44126;SDS011;29786;50.798;7.302;2022-11-04T00:32:22;1.5;;;1.1;;
44126;SDS011;29786;50.798;7.302;2022-11-04T00:33:22;1.1;;;1;;
44126;SDS011;29786;50.798;7.302;2022-11-04T00:34:22;1.5;;;1.1;;
44126;SDS011;29786;50.798;7.302;2022-11-04T00:35:22;1.2;;;1.1;;
44126;SDS011;29786;50.798;7.302;2022-11-04T00:36:23;1.4;;;1.1;;
44126;SDS011;29786;50.798;7.302;2022-11-04T00:37:22;1.1;;;1.1;;
44126;SDS011;29786;50.798;7.302;2022-11-04T00:38:22;1.3;;;1.2;;
44126;SDS011;29786;50.798;7.302;2022-11-04T00:39:22;1.7;;;1.1;;
44126;SDS011;29786;50.798;7.302;2022-11-04T00:40:22;1.4;;;1.1;;
44126;SDS011;29786;50.798;7.302;2022-11-04T00:41:22;1.3;;;1.2;;
44126;SDS011;29786;50.798;7.302;2022-11-04T00:42:22;3.9;;;1.1;;
44126;SDS011;29786;50.798;7.302;2022-11-04T00:43:22;1;;;1;;
44126;SDS011;29786;50.798;7.302;2022-11-04T00:44:22;1.6;;;1;;
44126;SDS011;29786;50.798;7.302;2022-11-04T00:45:22;2.1;;;1.1;;
44126;SDS011;29786;50.798;7.302;2022-11-04T00:46:22;1.2;;;1.1;;
44126;SDS011;29786;50.798;7.302;2022-11-04T00:47:22;1.3;;;1.1;;
44126;SDS011;29786;50.798;7.302;2022-11-04T00:48:22;1.1;;;1;;
44126;SDS011;29786;50.798;7.302;2022-11-04T00:49:22;0.9;;;0.9;;
44126;SDS011;29786;50.798;7.302;2022-11-04T00:50:22;1.8;;;1.1;;
44126;SDS011;29786;50.798;7.302;2022-11-04T00:51:22;2.3;;;1.2;;
44126;SDS011;29786;50.798;7.302;2022-11-04T00:52:22;1.1;;;0.9;;
44126;SDS011;29786;50.798;7.302;2022-11-04T00:53:22;2.3;;;1.2;;
44126;SDS011;29786;50.798;7.302;2022-11-04T00:54:22;2.1;;;1.3;;
44126;SDS011;29786;50.798;7.302;2022-11-04T00:55:22;1.4;;;1.3;;
44126;SDS011;29786;50.798;7.302;2022-11-04T00:56:22;1.2;;;1.1;;
44126;SDS011;29786;50.798;7.302;2022-11-04T00:57:22;1;;;1;;
44126;SDS011;29786;50.798;7.302;2022-11-04T00:58:22;1.8;;;0.9;;
44126;SDS011;29786;50.798;7.302;2022-11-04T00:59:22;1.1;;;1;;
44126;SDS011;29786;50.798;7.302;2022-11-04T01:00:22;1.5;;;1.1;;
44126;SDS011;29786;50.798;7.302;2022-11-04T01:01:22;1.1;;;1;;
44126;SDS011;29786;50.798;7.302;2022-11-04T01:02:22;1.2;;;1.1;;
44126;SDS011;29786;50.798;7.302;2022-11-04T01:03:22;1.6;;;1.1;;
44126;SDS011;29786;50.798;7.302;2022-11-04T01:04:22;1.8;;;1.2;;
44126;SDS011;29786;50.798;7.302;2022-11-04T01:05:22;1.4;;;1.1;;
44126;SDS011;29786;50.798;7.302;2022-11-04T01:06:23;2;;;1.4;;
44126;SDS011;29786;50.798;7.302;2022-11-04T01:07:22;2.3;;;1.6;;
44126;SDS011;29786;50.798;7.302;2022-11-04T01:08:22;2.2;;;1.6;;
44126;SDS011;29786;50.798;7.302;2022-11-04T01:09:22;2.3;;;1.5;;
44126;SDS011;29786;50.798;7.302;2022-11-04T01:10:22;1.2;;;1.1;;
44126;SDS011;29786;50.798;7.302;2022-11-04T01:11:22;2.1;;;1.7;;
44126;SDS011;29786;50.798;7.302;2022-11-04T01:12:22;2.1;;;1.4;;
44126;SDS011;29786;50.798;7.302;2022-11-04T01:13:22;4.1;;;1.5;;
44126;SDS011;29786;50.798;7.302;2022-11-04T01:14:22;2.1;;;1.1;;
44126;SDS011;29786;50.798;7.302;2022-11-04T01:15:22;1.7;;;1.6;;
44126;SDS011;29786;50.798;7.302;2022-11-04T01:16:22;1.4;;;1.3;;
44126;SDS011;29786;50.798;7.302;2022-11-04T01:17:22;1.5;;;1.4;;
44126;SDS011;29786;50.798;7.302;2022-11-04T01:18:22;2.6;;;1.2;;
44126;SDS011;29786;50.798;7.302;2022-11-04T01:19:22;1.5;;;1.4;;
44126;SDS011;29786;50.798;7.302;2022-11-04T01:20:22;1.7;;;1.6;;
44126;SDS011;29786;50.798;7.302;2022-11-04T01:21:22;1.9;;;1.5;;
44126;SDS011;29786;50.798;7.302;2022-11-04T01:22:22;1.5;;;1.3;;
44126;SDS011;29786;50.798;7.302;2022-11-04T01:23:22;1.7;;;1.3;;
44126;SDS011;29786;50.798;7.302;2022-11-04T01:24:22;2.7;;;1.3;;
44126;SDS011;29786;50.798;7.302;2022-11-04T01:25:22;1.3;;;1.2;;
44126;SDS011;29786;50.798;7.302;2022-11-04T01:26:22;2;;;1.3;;
44126;SDS011;29786;50.798;7.302;2022-11-04T01:27:22;1.7;;;1.3;;
44126;SDS011;29786;50.798;7.302;2022-11-04T01:28:22;2;;;1.7;;
44126;SDS011;29786;50.798;7.302;2022-11-04T01:29:22;2;;;1.2;;
44126;SDS011;29786;50.798;7.302;2022-11-04T01:30:22;2.1;;;1.4;;
44126;SDS011;29786;50.798;7.302;2022-11-04T01:31:24;2.6;;;1.4;;
44126;SDS011;29786;50.798;7.302;2022-11-04T01:32:22;1.5;;;1.4;;
44126;SDS011;29786;50.798;7.302;2022-11-04T01:33:22;2.5;;;1.6;;
44126;SDS011;29786;50.798;7.302;2022-11-04T01:34:22;3.4;;;1.7;;
44126;SDS011;29786;50.798;7.302;2022-11-04T01:35:22;1.7;;;1.2;;
44126;SDS011;29786;50.798;7.302;2022-11-04T01:36:22;2.1;;;1.8;;
44126;SDS011;29786;50.798;7.302;2022-11-04T01:37:22;2.5;;;1.3;;
44126;SDS011;29786;50.798;7.302;2022-11-04T01:38:22;3.3;;;1.6;;
44126;SDS011;29786;50.798;7.302;2022-11-04T01:39:22;1.7;;;1.3;;
44126;SDS011;29786;50.798;7.302;2022-11-04T01:40:22;3;;;1.5;;
44126;SDS011;29786;50.798;7.302;2022-11-04T01:41:23;2.9;;;1.3;;
44126;SDS011;29786;50.798;7.302;2022-11-04T01:42:22;1.4;;;1.3;;
44126;SDS011;29786;50.798;7.302;2022-11-04T01:43:22;1.2;;;1.1;;
44126;SDS011;29786;50.798;7.302;2022-11-04T01:44:55;1;;;1;;
44126;SDS011;29786;50.798;7.302;2022-11-04T01:45:22;1.3;;;1.2;;
44126;SDS011;29786;50.798;7.302;2022-11-04T01:46:31;1.7;;;1.3;;
44126;SDS011;29786;50.798;7.302;2022-11-04T01:47:25;2.1;;;1.1;;
44126;SDS011;29786;50.798;7.302;2022-11-04T01:48:24;1.5;;;1.1;;
44126;SDS011;29786;50.798;7.302;2022-11-04T01:49:24;1.3;;;1.2;;
44126;SDS011;29786;50.798;7.302;2022-11-04T01:50:24;1.6;;;1.3;;
44126;SDS011;29786;50.798;7.302;2022-11-04T01:51:22;1.3;;;1.2;;
44126;SDS011;29786;50.798;7.302;2022-11-04T01:52:25;1.2;;;1.1;;
44126;SDS011;29786;50.798;7.302;2022-11-04T01:53:23;1.4;;;1.3;;
44126;SDS011;29786;50.798;7.302;2022-11-04T01:54:22;1.3;;;1.2;;
44126;SDS011;29786;50.798;7.302;2022-11-04T01:55:23;1.2;;;1.1;;
44126;SDS011;29786;50.798;7.302;2022-11-04T01:56:22;1.6;;;1.2;;
44126;SDS011;29786;50.798;7.302;2022-11-04T01:57:24;1.2;;;1.1;;
44126;SDS011;29786;50.798;7.302;2022-11-04T01:58:23;1.4;;;1.1;;
44126;SDS011;29786;50.798;7.302;2022-11-04T01:59:23;2.7;;;1.3;;
44126;SDS011;29786;50.798;7.302;2022-11-04T02:00:22;2.2;;;1.1;;
44126;SDS011;29786;50.798;7.302;2022-11-04T02:01:22;1.7;;;1;;
44126;SDS011;29786;50.798;7.302;2022-11-04T02:02:22;1;;;1;;
44126;SDS011;29786;50.798;7.302;2022-11-04T02:03:25;1.1;;;0.9;;
44126;SDS011;29786;50.798;7.302;2022-11-04T02:04:22;1.4;;;1.2;;
44126;SDS011;29786;50.798;7.302;2022-11-04T02:05:22;1.7;;;1.2;;
44126;SDS011;29786;50.798;7.302;2022-11-04T02:06:22;1.5;;;1;;
44126;SDS011;29786;50.798;7.302;2022-11-04T02:07:22;1.5;;;1.2;;
44126;SDS011;29786;50.798;7.302;2022-11-04T02:08:22;1.7;;;1.1;;
44126;SDS011;29786;50.798;7.302;2022-11-04T02:09:22;1.2;;;1.1;;
44126;SDS011;29786;50.798;7.302;2022-11-04T02:10:24;1;;;1;;
44126;SDS011;29786;50.798;7.302;2022-11-04T02:11:22;1.2;;;1.1;;
44126;SDS011;29786;50.798;7.302;2022-11-04T02:12:22;2.2;;;1.2;;
44126;SDS011;29786;50.798;7.302;2022-11-04T02:13:22;2.2;;;1.2;;
44126;SDS011;29786;50.798;7.302;2022-11-04T02:14:22;1.6;;;0.9;;
44126;SDS011;29786;50.798;7.302;2022-11-04T02:15:25;1.1;;;1;;
44126;SDS011;29786;50.798;7.302;2022-11-04T02:16:57;1.4;;;1.2;;
44126;SDS011;29786;50.798;7.302;2022-11-04T02:17:28;1.6;;;1;;
44126;SDS011;29786;50.798;7.302;2022-11-04T02:18:28;3;;;1;;
44126;SDS011;29786;50.798;7.302;2022-11-04T02:19:34;2.2;;;1.1;;
44126;SDS011;29786;50.798;7.302;2022-11-04T02:20:33;1.7;;;0.9;;
44126;SDS011;29786;50.798;7.302;2022-11-04T02:23:25;1.5;;;1.3;;
44126;SDS011;29786;50.798;7.302;2022-11-04T02:24:30;4.2;;;1.4;;
44126;SDS011;29786;50.798;7.302;2022-11-04T02:26:31;1.4;;;1;;
44126;SDS011;29786;50.798;7.302;2022-11-04T02:27:31;1.8;;;1.1;;
44126;SDS011;29786;50.798;7.302;2022-11-04T02:28:31;1.8;;;1;;
44126;SDS011;29786;50.798;7.302;2022-11-04T02:29:26;1.2;;;1.1;;
44126;SDS011;29786;50.798;7.302;2022-11-04T02:30:22;1.5;;;1.2;;
44126;SDS011;29786;50.798;7.302;2022-11-04T02:31:29;1.8;;;1.2;;
44126;SDS011;29786;50.798;7.302;2022-11-04T02:32:26;2.7;;;1.2;;
44126;SDS011;29786;50.798;7.302;2022-11-04T02:33:24;1.5;;;1.2;;
44126;SDS011;29786;50.798;7.302;2022-11-04T02:34:26;1.7;;;1.2;;
44126;SDS011;29786;50.798;7.302;2022-11-04T02:35:25;1.6;;;1.1;;
44126;SDS011;29786;50.798;7.302;2022-11-04T02:36:29;1;;;0.9;;
44126;SDS011;29786;50.798;7.302;2022-11-04T02:37:27;2.4;;;1.2;;
44126;SDS011;29786;50.798;7.302;2022-11-04T02:38:40;1.5;;;1.1;;
44126;SDS011;29786;50.798;7.302;2022-11-04T02:39:27;2;;;1.2;;
44126;SDS011;29786;50.798;7.302;2022-11-04T02:40:27;1.3;;;1.2;;
44126;SDS011;29786;50.798;7.302;2022-11-04T02:42:25;1.5;;;1.3;;
44126;SDS011;29786;50.798;7.302;2022-11-04T02:42:35;2.8;;;1.3;;
44126;SDS011;29786;50.798;7.302;2022-11-04T02:43:43;1.3;;;1.1;;
44126;SDS011;29786;50.798;7.302;2022-11-04T02:44:26;1.4;;;1.2;;
44126;SDS011;29786;50.798;7.302;2022-11-04T02:45:28;2.4;;;1.6;;
44126;SDS011;29786;50.798;7.302;2022-11-04T02:46:23;2.2;;;1.1;;
44126;SDS011;29786;50.798;7.302;2022-11-04T02:47:24;1.6;;;1.2;;
44126;SDS011;29786;50.798;7.302;2022-11-04T02:48:26;2.1;;;1.4;;
44126;SDS011;29786;50.798;7.302;2022-11-04T02:49:28;3.1;;;1.4;;
44126;SDS011;29786;50.798;7.302;2022-11-04T02:50:32;2.1;;;1.4;;
44126;SDS011;29786;50.798;7.302;2022-11-04T02:51:30;1.4;;;1.1;;
44126;SDS011;29786;50.798;7.302;2022-11-04T02:52:28;1.8;;;1.5;;
44126;SDS011;29786;50.798;7.302;2022-11-04T02:53:23;3;;;1.5;;
44126;SDS011;29786;50.798;7.302;2022-11-04T02:54:27;2.5;;;1.9;;
44126;SDS011;29786;50.798;7.302;2022-11-04T02:55:24;4;;;2.7;;
44126;SDS011;29786;50.798;7.302;2022-11-04T02:56:22;4.3;;;2.3;;
44126;SDS011;29786;50.798;7.302;2022-11-04T02:57:23;4.1;;;2.1;;
44126;SDS011;29786;50.798;7.302;2022-11-04T02:58:26;3.3;;;2;;
44126;SDS011;29786;50.798;7.302;2022-11-04T02:59:28;1.6;;;1.5;;
44126;SDS011;29786;50.798;7.302;2022-11-04T03:00:22;3.1;;;1.4;;
44126;SDS011;29786;50.798;7.302;2022-11-04T03:01:22;2.3;;;1.3;;
44126;SDS011;29786;50.798;7.302;2022-11-04T03:02:24;2.6;;;1.3;;
44126;SDS011;29786;50.798;7.302;2022-11-04T03:03:24;2;;;1.2;;
44126;SDS011;29786;50.798;7.302;2022-11-04T03:04:25;2.3;;;1.3;;
44126;SDS011;29786;50.798;7.302;2022-11-04T03:05:24;2.6;;;1.3;;
44126;SDS011;29786;50.798;7.302;2022-11-04T03:06:22;1.6;;;1.2;;
44126;SDS011;29786;50.798;7.302;2022-11-04T03:07:23;1.6;;;1.1;;
44126;SDS011;29786;50.798;7.302;2022-11-04T03:08:24;2.1;;;0.8;;
44126;SDS011;29786;50.798;7.302;2022-11-04T03:09:22;2.2;;;1.3;;
44126;SDS011;29786;50.798;7.302;2022-11-04T03:10:23;3.6;;;1.4;;
44126;SDS011;29786;50.798;7.302;2022-11-04T03:11:23;2.1;;;1.1;;
44126;SDS011;29786;50.798;7.302;2022-11-04T03:12:23;2.2;;;1.6;;
44126;SDS011;29786;50.798;7.302;2022-11-04T03:13:28;2.6;;;1.4;;
44126;SDS011;29786;50.798;7.302;2022-11-04T03:14:23;2.8;;;1.4;;
44126;SDS011;29786;50.798;7.302;2022-11-04T03:15:23;2.8;;;1.4;;
44126;SDS011;29786;50.798;7.302;2022-11-04T03:16:26;4;;;1.6;;
44126;SDS011;29786;50.798;7.302;2022-11-04T03:17:28;3;;;1.5;;
44126;SDS011;29786;50.798;7.302;2022-11-04T03:18:25;2.9;;;1.5;;
44126;SDS011;29786;50.798;7.302;2022-11-04T03:20:23;3.1;;;1.4;;
44126;SDS011;29786;50.798;7.302;2022-11-04T03:20:27;3.7;;;1.6;;
44126;SDS011;29786;50.798;7.302;2022-11-04T03:21:22;4.3;;;1.5;;
44126;SDS011;29786;50.798;7.302;2022-11-04T03:22:23;4.9;;;1.9;;
44126;SDS011;29786;50.798;7.302;2022-11-04T03:23:22;3.1;;;1.5;;
44126;SDS011;29786;50.798;7.302;2022-11-04T03:24:22;2.3;;;1.4;;
44126;SDS011;29786;50.798;7.302;2022-11-04T03:25:23;2.3;;;1.3;;
44126;SDS011;29786;50.798;7.302;2022-11-04T03:26:25;4.8;;;1.5;;
44126;SDS011;29786;50.798;7.302;2022-11-04T03:27:25;5.9;;;1.6;;
44126;SDS011;29786;50.798;7.302;2022-11-04T03:28:26;3.3;;;1.5;;
44126;SDS011;29786;50.798;7.302;2022-11-04T03:30:22;2.9;;;1.6;;
44126;SDS011;29786;50.798;7.302;2022-11-04T03:30:27;2;;;1.4;;
44126;SDS011;29786;50.798;7.302;2022-11-04T03:31:23;4.3;;;1.9;;
44126;SDS011;29786;50.798;7.302;2022-11-04T03:32:31;7.9;;;2.2;;
44126;SDS011;29786;50.798;7.302;2022-11-04T03:33:25;5.5;;;2.4;;
44126;SDS011;29786;50.798;7.302;2022-11-04T03:34:22;5.4;;;1.8;;
44126;SDS011;29786;50.798;7.302;2022-11-04T03:35:22;6.4;;;1.7;;
44126;SDS011;29786;50.798;7.302;2022-11-04T03:36:22;5.4;;;1.9;;
44126;SDS011;29786;50.798;7.302;2022-11-04T03:37:22;5.9;;;2.3;;
44126;SDS011;29786;50.798;7.302;2022-11-04T03:38:22;6.2;;;2.2;;
44126;SDS011;29786;50.798;7.302;2022-11-04T03:39:22;5.6;;;2.8;;
44126;SDS011;29786;50.798;7.302;2022-11-04T03:40:22;8.5;;;2.5;;
44126;SDS011;29786;50.798;7.302;2022-11-04T03:41:29;6.9;;;3;;
44126;SDS011;29786;50.798;7.302;2022-11-04T03:42:22;5.3;;;2.9;;
44126;SDS011;29786;50.798;7.302;2022-11-04T03:43:23;9.7;;;3;;
44126;SDS011;29786;50.798;7.302;2022-11-04T03:44:22;5.7;;;1.9;;
44126;SDS011;29786;50.798;7.302;2022-11-04T03:45:22;6.9;;;1.8;;
44126;SDS011;29786;50.798;7.302;2022-11-04T03:46:22;4.4;;;1.5;;
44126;SDS011;29786;50.798;7.302;2022-11-04T03:47:26;4.9;;;1.5;;
44126;SDS011;29786;50.798;7.302;2022-11-04T03:48:22;5.4;;;1.3;;
44126;SDS011;29786;50.798;7.302;2022-11-04T03:49:22;6.2;;;1.6;;
44126;SDS011;29786;50.798;7.302;2022-11-04T03:50:25;5.6;;;1.8;;
44126;SDS011;29786;50.798;7.302;2022-11-04T03:51:22;4.2;;;1.5;;
44126;SDS011;29786;50.798;7.302;2022-11-04T03:52:22;1.9;;;1.3;;
44126;SDS011;29786;50.798;7.302;2022-11-04T03:53:22;3.7;;;1.6;;
44126;SDS011;29786;50.798;7.302;2022-11-04T03:54:22;3.4;;;1.7;;
44126;SDS011;29786;50.798;7.302;2022-11-04T03:55:23;4.3;;;1.5;;
44126;SDS011;29786;50.798;7.302;2022-11-04T03:57:26;2.1;;;1.3;;
44126;SDS011;29786;50.798;7.302;2022-11-04T03:58:26;5.1;;;2;;
44126;SDS011;29786;50.798;7.302;2022-11-04T03:59:27;2.3;;;1.1;;
44126;SDS011;29786;50.798;7.302;2022-11-04T04:00:22;3.8;;;1.2;;
44126;SDS011;29786;50.798;7.302;2022-11-04T04:01:30;5.2;;;1.5;;
44126;SDS011;29786;50.798;7.302;2022-11-04T04:02:26;3.3;;;1.5;;
44126;SDS011;29786;50.798;7.302;2022-11-04T04:03:24;3.3;;;1.4;;
44126;SDS011;29786;50.798;7.302;2022-11-04T04:04:26;4.6;;;1.5;;
44126;SDS011;29786;50.798;7.302;2022-11-04T04:05:26;5.7;;;1.4;;
44126;SDS011;29786;50.798;7.302;2022-11-04T04:06:24;5.4;;;1.6;;
44126;SDS011;29786;50.798;7.302;2022-11-04T04:07:28;4.3;;;1.4;;
44126;SDS011;29786;50.798;7.302;2022-11-04T04:08:31;3.7;;;1.5;;
44126;SDS011;29786;50.798;7.302;2022-11-04T04:09:23;5;;;1.6;;
44126;SDS011;29786;50.798;7.302;2022-11-04T04:10:25;3.3;;;1.8;;
44126;SDS011;29786;50.798;7.302;2022-11-04T04:11:28;2.6;;;1.5;;
44126;SDS011;29786;50.798;7.302;2022-11-04T04:12:26;2.7;;;1.2;;
44126;SDS011;29786;50.798;7.302;2022-11-04T04:13:25;1.4;;;1.2;;
44126;SDS011;29786;50.798;7.302;2022-11-04T04:14:27;3.2;;;1.6;;
44126;SDS011;29786;50.798;7.302;2022-11-04T04:15:23;5.1;;;1.4;;
44126;SDS011;29786;50.798;7.302;2022-11-04T04:16:26;3.2;;;1.3;;
44126;SDS011;29786;50.798;7.302;2022-11-04T04:17:32;5.6;;;1.7;;
44126;SDS011;29786;50.798;7.302;2022-11-04T04:18:24;2.7;;;1.3;;
44126;SDS011;29786;50.798;7.302;2022-11-04T04:19:22;6.4;;;2.3;;
44126;SDS011;29786;50.798;7.302;2022-11-04T04:20:23;2.6;;;1.4;;
44126;SDS011;29786;50.798;7.302;2022-11-04T04:21:23;2.8;;;1.5;;
44126;SDS011;29786;50.798;7.302;2022-11-04T04:22:23;2.9;;;1.3;;
44126;SDS011;29786;50.798;7.302;2022-11-04T04:23:23;3.4;;;1.5;;
44126;SDS011;29786;50.798;7.302;2022-11-04T04:24:22;4.3;;;1.4;;
44126;SDS011;29786;50.798;7.302;2022-11-04T04:25:22;3.8;;;1.4;;
44126;SDS011;29786;50.798;7.302;2022-11-04T04:26:22;3.6;;;1.4;;
44126;SDS011;29786;50.798;7.302;2022-11-04T04:27:22;3.6;;;1.3;;
44126;SDS011;29786;50.798;7.302;2022-11-04T04:28:22;3;;;1.2;;
44126;SDS011;29786;50.798;7.302;2022-11-04T04:29:22;3;;;1.3;;
44126;SDS011;29786;50.798;7.302;2022-11-04T04:30:22;6.8;;;1.8;;
44126;SDS011;29786;50.798;7.302;2022-11-04T04:31:22;4.1;;;1.6;;
44126;SDS011;29786;50.798;7.302;2022-11-04T04:32:23;3.7;;;1.7;;
44126;SDS011;29786;50.798;7.302;2022-11-04T04:33:22;3.7;;;1.6;;
44126;SDS011;29786;50.798;7.302;2022-11-04T04:34:23;3.8;;;1.5;;
44126;SDS011;29786;50.798;7.302;2022-11-04T04:35:24;3.9;;;1.4;;
44126;SDS011;29786;50.798;7.302;2022-11-04T04:36:22;2.4;;;1.2;;
44126;SDS011;29786;50.798;7.302;2022-11-04T04:37:22;3.6;;;1.4;;
44126;SDS011;29786;50.798;7.302;2022-11-04T04:38:24;3.8;;;1.3;;
44126;SDS011;29786;50.798;7.302;2022-11-04T04:39:23;3;;;1.3;;
44126;SDS011;29786;50.798;7.302;2022-11-04T04:40:23;2.3;;;1;;
44126;SDS011;29786;50.798;7.302;2022-11-04T04:41:25;2;;;1.2;;
44126;SDS011;29786;50.798;7.302;2022-11-04T04:42:22;2.6;;;1.1;;
44126;SDS011;29786;50.798;7.302;2022-11-04T04:43:22;3.3;;;1.2;;
44126;SDS011;29786;50.798;7.302;2022-11-04T04:44:23;3.9;;;1.4;;
44126;SDS011;29786;50.798;7.302;2022-11-04T04:45:24;1.9;;;1.2;;
44126;SDS011;29786;50.798;7.302;2022-11-04T04:46:22;3.4;;;1.4;;
44126;SDS011;29786;50.798;7.302;2022-11-04T04:47:22;1.9;;;1.2;;
44126;SDS011;29786;50.798;7.302;2022-11-04T04:48:22;3;;;1.2;;
44126;SDS011;29786;50.798;7.302;2022-11-04T04:49:22;5.4;;;1.3;;
44126;SDS011;29786;50.798;7.302;2022-11-04T04:50:24;4.3;;;1.3;;
44126;SDS011;29786;50.798;7.302;2022-11-04T04:51:22;5.6;;;1.4;;
44126;SDS011;29786;50.798;7.302;2022-11-04T04:52:22;3.1;;;1.3;;
44126;SDS011;29786;50.798;7.302;2022-11-04T04:53:22;2.1;;;1.1;;
44126;SDS011;29786;50.798;7.302;2022-11-04T04:54:22;3.6;;;1.3;;
44126;SDS011;29786;50.798;7.302;2022-11-04T04:55:22;3;;;1.3;;
44126;SDS011;29786;50.798;7.302;2022-11-04T04:56:22;6;;;1.5;;
44126;SDS011;29786;50.798;7.302;2022-11-04T04:57:22;2.6;;;1.3;;
44126;SDS011;29786;50.798;7.302;2022-11-04T04:58:22;7.9;;;1.6;;
44126;SDS011;29786;50.798;7.302;2022-11-04T04:59:22;4.6;;;1.4;;
44126;SDS011;29786;50.798;7.302;2022-11-04T05:00:22;4.3;;;1.3;;
44126;SDS011;29786;50.798;7.302;2022-11-04T05:01:22;3.1;;;1.1;;
44126;SDS011;29786;50.798;7.302;2022-11-04T05:02:22;3;;;1.3;;
44126;SDS011;29786;50.798;7.302;2022-11-04T05:03:23;2.7;;;1.1;;
44126;SDS011;29786;50.798;7.302;2022-11-04T05:04:22;5.1;;;1.2;;
44126;SDS011;29786;50.798;7.302;2022-11-04T05:05:22;2.2;;;1.3;;
44126;SDS011;29786;50.798;7.302;2022-11-04T05:06:22;3.4;;;1.2;;
44126;SDS011;29786;50.798;7.302;2022-11-04T05:07:22;2.4;;;1;;
44126;SDS011;29786;50.798;7.302;2022-11-04T05:08:22;4.8;;;1.8;;
44126;SDS011;29786;50.798;7.302;2022-11-04T05:09:22;3.7;;;1.2;;
44126;SDS011;29786;50.798;7.302;2022-11-04T05:10:22;4.2;;;1.3;;
44126;SDS011;29786;50.798;7.302;2022-11-04T05:11:22;5.6;;;1.7;;
44126;SDS011;29786;50.798;7.302;2022-11-04T05:12:22;6.8;;;1.4;;
44126;SDS011;29786;50.798;7.302;2022-11-04T05:13:22;7.7;;;1.7;;
44126;SDS011;29786;50.798;7.302;2022-11-04T05:14:22;5;;;1.5;;
44126;SDS011;29786;50.798;7.302;2022-11-04T05:15:22;4.2;;;1.3;;
44126;SDS011;29786;50.798;7.302;2022-11-04T05:16:22;6.9;;;1.5;;
44126;SDS011;29786;50.798;7.302;2022-11-04T05:17:22;3.8;;;1.3;;
44126;SDS011;29786;50.798;7.302;2022-11-04T05:18:22;6.6;;;1.4;;
44126;SDS011;29786;50.798;7.302;2022-11-04T05:19:22;4.4;;;1.3;;
44126;SDS011;29786;50.798;7.302;2022-11-04T05:20:22;4.7;;;1.4;;
44126;SDS011;29786;50.798;7.302;2022-11-04T05:21:22;6.1;;;1.7;;
44126;SDS011;29786;50.798;7.302;2022-11-04T05:22:22;3.6;;;1.5;;
44126;SDS011;29786;50.798;7.302;2022-11-04T05:23:22;3.5;;;1.8;;
44126;SDS011;29786;50.798;7.302;2022-11-04T05:24:22;4.6;;;1.9;;
44126;SDS011;29786;50.798;7.302;2022-11-04T05:25:22;6.7;;;1.7;;
44126;SDS011;29786;50.798;7.302;2022-11-04T05:26:22;2.3;;;1.5;;
44126;SDS011;29786;50.798;7.302;2022-11-04T05:27:22;7.8;;;1.9;;
44126;SDS011;29786;50.798;7.302;2022-11-04T05:28:22;4.1;;;2;;
44126;SDS011;29786;50.798;7.302;2022-11-04T05:29:22;4.1;;;1.9;;
44126;SDS011;29786;50.798;7.302;2022-11-04T05:30:22;6.2;;;2.7;;
44126;SDS011;29786;50.798;7.302;2022-11-04T05:31:22;3.2;;;1.7;;
44126;SDS011;29786;50.798;7.302;2022-11-04T05:32:22;4.8;;;1.9;;
44126;SDS011;29786;50.798;7.302;2022-11-04T05:33:22;4.5;;;1.7;;
44126;SDS011;29786;50.798;7.302;2022-11-04T05:34:22;4.3;;;1.8;;
44126;SDS011;29786;50.798;7.302;2022-11-04T05:35:22;6;;;1.6;;
44126;SDS011;29786;50.798;7.302;2022-11-04T05:36:22;4;;;2.2;;
44126;SDS011;29786;50.798;7.302;2022-11-04T05:37:22;5.2;;;1.8;;
44126;SDS011;29786;50.798;7.302;2022-11-04T05:38:22;5.4;;;2;;
44126;SDS011;29786;50.798;7.302;2022-11-04T05:39:22;4.4;;;1.5;;
44126;SDS011;29786;50.798;7.302;2022-11-04T05:40:22;4.3;;;1.8;;
44126;SDS011;29786;50.798;7.302;2022-11-04T05:41:22;5.4;;;2.2;;
44126;SDS011;29786;50.798;7.302;2022-11-04T05:42:22;5.5;;;1.8;;
44126;SDS011;29786;50.798;7.302;2022-11-04T05:43:22;4.5;;;1.5;;
44126;SDS011;29786;50.798;7.302;2022-11-04T05:44:22;4.6;;;1.5;;
44126;SDS011;29786;50.798;7.302;2022-11-04T05:45:22;3.6;;;1.5;;
44126;SDS011;29786;50.798;7.302;2022-11-04T05:46:22;3.9;;;1.6;;
44126;SDS011;29786;50.798;7.302;2022-11-04T05:47:22;5;;;1.8;;
44126;SDS011;29786;50.798;7.302;2022-11-04T05:48:22;5.1;;;1.5;;
44126;SDS011;29786;50.798;7.302;2022-11-04T05:49:22;6.4;;;1.8;;
44126;SDS011;29786;50.798;7.302;2022-11-04T05:50:22;3;;;1.7;;
44126;SDS011;29786;50.798;7.302;2022-11-04T05:51:23;15.5;;;5.6;;
44126;SDS011;29786;50.798;7.302;2022-11-04T05:52:22;18.5;;;7.2;;
44126;SDS011;29786;50.798;7.302;2022-11-04T05:53:22;15.7;;;7.7;;
44126;SDS011;29786;50.798;7.302;2022-11-04T05:54:22;20.5;;;9.1;;
44126;SDS011;29786;50.798;7.302;2022-11-04T05:55:22;27.9;;;12.9;;
44126;SDS011;29786;50.798;7.302;2022-11-04T05:56:22;25;;;12.6;;
44126;SDS011;29786;50.798;7.302;2022-11-04T05:57:22;14.5;;;7.3;;
44126;SDS011;29786;50.798;7.302;2022-11-04T05:58:22;13;;;6.7;;
44126;SDS011;29786;50.798;7.302;2022-11-04T05:59:22;13.5;;;6.5;;
44126;SDS011;29786;50.798;7.302;2022-11-04T06:00:22;10.4;;;5.5;;
44126;SDS011;29786;50.798;7.302;2022-11-04T06:01:38;10.7;;;5.5;;
44126;SDS011;29786;50.798;7.302;2022-11-04T06:02:22;11.1;;;5.6;;
44126;SDS011;29786;50.798;7.302;2022-11-04T06:03:22;10.9;;;6;;
44126;SDS011;29786;50.798;7.302;2022-11-04T06:04:22;9.2;;;5.4;;
44126;SDS011;29786;50.798;7.302;2022-11-04T06:05:22;9.6;;;5.5;;
44126;SDS011;29786;50.798;7.302;2022-11-04T06:06:22;7.3;;;4.2;;
44126;SDS011;29786;50.798;7.302;2022-11-04T06:07:22;7.5;;;3.6;;
44126;SDS011;29786;50.798;7.302;2022-11-04T06:08:22;8.3;;;4;;
44126;SDS011;29786;50.798;7.302;2022-11-04T06:09:22;9.4;;;4.5;;
44126;SDS011;29786;50.798;7.302;2022-11-04T06:10:23;8.2;;;4.4;;
44126;SDS011;29786;50.798;7.302;2022-11-04T06:11:22;8.3;;;4.3;;
44126;SDS011;29786;50.798;7.302;2022-11-04T06:12:22;8.3;;;3.8;;
44126;SDS011;29786;50.798;7.302;2022-11-04T06:13:22;9.8;;;4.2;;
44126;SDS011;29786;50.798;7.302;2022-11-04T06:14:22;9.6;;;3.8;;
44126;SDS011;29786;50.798;7.302;2022-11-04T06:15:22;10.4;;;4.1;;
44126;SDS011;29786;50.798;7.302;2022-11-04T06:16:22;7.6;;;4.2;;
44126;SDS011;29786;50.798;7.302;2022-11-04T06:17:22;7.3;;;3.9;;
44126;SDS011;29786;50.798;7.302;2022-11-04T06:18:22;8.7;;;5;;